createdAt,value
2023-01-31T00:00:55.748Z,15.82
2023-01-31T00:03:26.449Z,13.67
2023-01-31T00:05:56.797Z,10.38
2023-01-31T00:08:29.863Z,14.20
2023-01-31T00:11:02.436Z,11.57
2023-01-31T00:13:33.041Z,21.53
2023-01-31T00:16:03.677Z,11.50
2023-01-31T00:18:34.882Z,15.30
2023-01-31T00:21:11.118Z,15.18
2023-01-31T00:23:46.234Z,13.40
2023-01-31T00:26:20.366Z,19.53
2023-01-31T00:28:52.799Z,18.53
2023-01-31T00:31:24.976Z,15.80
2023-01-31T00:33:56.995Z,17.87
2023-01-31T00:36:30.281Z,14.77
2023-01-31T00:39:06.840Z,16.03
2023-01-31T00:41:39.426Z,17.90
2023-01-31T00:44:10.548Z,13.20
2023-01-31T00:46:42.121Z,9.93
2023-01-31T00:49:12.634Z,13.20
2023-01-31T00:51:43.067Z,13.60
2023-01-31T00:54:16.054Z,12.00
2023-01-31T00:56:46.434Z,13.20
2023-01-31T00:59:17.008Z,16.73
2023-01-31T01:01:47.620Z,11.15
2023-01-31T01:04:18.106Z,15.70
2023-01-31T01:06:50.531Z,15.32
2023-01-31T01:09:23.718Z,10.30
2023-01-31T01:11:54.605Z,14.73
2023-01-31T01:14:25.202Z,13.70
2023-01-31T01:16:58.430Z,18.67
2023-01-31T01:19:29.149Z,11.67
2023-01-31T01:21:59.582Z,15.90
2023-01-31T01:24:32.984Z,13.93
2023-01-31T01:27:06.701Z,12.63
2023-01-31T01:29:37.181Z,13.67
2023-01-31T01:32:08.756Z,12.90
2023-01-31T01:34:39.383Z,13.90
2023-01-31T01:37:20.162Z,13.52
2023-01-31T01:39:54.207Z,10.95
2023-01-31T01:42:27.747Z,10.93
2023-01-31T01:45:00.629Z,13.07
2023-01-31T01:47:40.400Z,13.10
2023-01-31T01:50:17.724Z,14.57
2023-01-31T01:52:53.851Z,8.90
2023-01-31T01:55:36.351Z,17.07
2023-01-31T01:58:14.094Z,7.43
2023-01-31T02:00:46.061Z,18.33
2023-01-31T02:03:18.100Z,18.23
2023-01-31T02:05:52.632Z,13.60
2023-01-31T02:08:26.783Z,14.67
2023-01-31T02:11:05.710Z,15.87
2023-01-31T02:13:36.476Z,11.00
2023-01-31T02:16:07.322Z,10.93
2023-01-31T02:18:38.119Z,17.38
2023-01-31T02:22:01.321Z,8.83
2023-01-31T02:25:22.702Z,10.27
2023-01-31T02:28:40.393Z,10.47
2023-01-31T02:31:55.086Z,14.47
2023-01-31T02:34:40.643Z,8.90
2023-01-31T02:37:23.382Z,9.37
2023-01-31T02:40:04.375Z,10.53
2023-01-31T02:42:48.966Z,10.90
2023-01-31T02:45:27.888Z,9.23
2023-01-31T02:48:12.945Z,12.83
2023-01-31T02:51:00.880Z,14.27
2023-01-31T02:53:37.573Z,11.73
2023-01-31T02:56:15.068Z,14.13
2023-01-31T02:58:49.490Z,13.27
2023-01-31T03:01:28.065Z,11.37
2023-01-31T03:04:01.782Z,9.70
2023-01-31T03:07:00.318Z,10.93
2023-01-31T03:09:44.332Z,16.95
2023-01-31T03:12:41.333Z,10.67
2023-01-31T03:15:56.780Z,17.70
2023-01-31T03:18:32.686Z,9.40
2023-01-31T03:21:11.430Z,16.10
2023-01-31T03:23:47.230Z,14.63
2023-01-31T03:26:20.391Z,19.40
2023-01-31T03:28:57.254Z,14.97
2023-01-31T03:31:33.047Z,10.63
2023-01-31T03:34:11.542Z,43.97
2023-01-31T03:36:50.070Z,30.50
2023-01-31T03:39:41.933Z,11.27
2023-01-31T03:42:22.507Z,12.13
2023-01-31T03:45:02.015Z,10.80
2023-01-31T03:47:38.792Z,14.57
2023-01-31T03:50:17.535Z,15.17
2023-01-31T03:52:55.529Z,8.57
2023-01-31T03:55:38.759Z,14.77
2023-01-31T03:58:11.554Z,13.50
2023-01-31T04:00:46.547Z,18.40
2023-01-31T04:03:23.796Z,12.50
2023-01-31T04:05:54.381Z,9.27
2023-01-31T04:08:25.652Z,16.88
2023-01-31T04:11:07.927Z,19.23
2023-01-31T04:13:38.508Z,18.73
2023-01-31T04:16:11.259Z,17.77
2023-01-31T04:18:41.684Z,26.47
2023-01-31T04:21:12.107Z,20.17
2023-01-31T04:23:42.408Z,10.57
2023-01-31T04:26:15.323Z,15.03
2023-01-31T04:28:45.662Z,13.27
2023-01-31T04:31:16.094Z,13.40
2023-01-31T04:33:46.587Z,10.93
2023-01-31T04:36:16.959Z,12.10
2023-01-31T04:38:47.292Z,13.73
2023-01-31T04:41:20.430Z,12.50
2023-01-31T04:43:50.765Z,13.83
2023-01-31T04:46:21.514Z,18.60
2023-01-31T04:48:51.948Z,11.70
2023-01-31T04:51:22.422Z,22.07
2023-01-31T04:53:52.732Z,13.60
2023-01-31T04:56:25.819Z,9.87
2023-01-31T04:58:56.139Z,21.07
2023-01-31T05:01:26.894Z,21.45
2023-01-31T05:03:57.312Z,11.88
2023-01-31T05:06:27.628Z,14.23
2023-01-31T05:09:01.469Z,9.73
2023-01-31T05:11:34.446Z,10.68
2023-01-31T05:14:04.945Z,9.48
2023-01-31T05:16:35.317Z,11.43
2023-01-31T05:19:05.729Z,9.10
2023-01-31T05:21:55.027Z,11.53
2023-01-31T05:24:25.582Z,7.33
2023-01-31T05:27:01.310Z,11.90
2023-01-31T05:29:34.089Z,19.33
2023-01-31T05:32:05.998Z,10.93
2023-01-31T05:34:36.298Z,14.70
2023-01-31T05:37:07.177Z,10.47
2023-01-31T05:39:37.621Z,7.55
2023-01-31T05:42:10.578Z,10.97
2023-01-31T05:44:40.969Z,12.93
2023-01-31T05:47:11.309Z,12.97
2023-01-31T05:49:41.796Z,13.43
2023-01-31T05:52:12.108Z,12.63
2023-01-31T05:54:42.375Z,14.33
2023-01-31T05:57:15.978Z,19.17
2023-01-31T05:59:46.415Z,21.47
2023-01-31T06:02:17.087Z,14.00
2023-01-31T06:04:47.400Z,10.93
2023-01-31T06:07:17.847Z,10.33
2023-01-31T06:09:48.500Z,14.70
2023-01-31T06:12:21.497Z,15.05
2023-01-31T06:15:19.130Z,11.70
2023-01-31T06:17:49.709Z,15.03
2023-01-31T06:20:20.360Z,12.13
2023-01-31T06:22:50.695Z,11.00
2023-01-31T06:25:21.657Z,12.23
2023-01-31T06:27:54.749Z,11.57
2023-01-31T06:30:25.338Z,12.30
2023-01-31T06:32:56.411Z,14.88
2023-01-31T06:35:26.935Z,13.13
2023-01-31T06:37:58.716Z,15.50
2023-01-31T06:40:29.388Z,12.73
2023-01-31T06:43:02.849Z,13.85
2023-01-31T06:45:33.345Z,13.47
2023-01-31T06:48:03.620Z,11.50
2023-01-31T06:50:34.026Z,13.67
2023-01-31T06:53:04.280Z,12.17
2023-01-31T06:55:34.616Z,10.43
2023-01-31T06:58:07.511Z,15.77
2023-01-31T07:00:37.885Z,8.67
2023-01-31T07:03:08.201Z,11.60
2023-01-31T07:05:38.543Z,13.33
2023-01-31T07:08:09.300Z,10.17
2023-01-31T07:10:39.811Z,15.40
2023-01-31T07:13:12.842Z,8.52
2023-01-31T07:15:43.236Z,11.67
2023-01-31T07:18:13.522Z,11.80
2023-01-31T07:20:43.921Z,12.30
2023-01-31T07:23:14.207Z,12.00
2023-01-31T07:25:44.564Z,9.47
2023-01-31T07:28:17.740Z,13.33
2023-01-31T07:30:48.665Z,16.43
2023-01-31T07:33:19.096Z,14.82
2023-01-31T07:35:49.729Z,11.27
2023-01-31T07:38:20.205Z,21.38
2023-01-31T07:40:50.452Z,10.17
2023-01-31T07:43:23.788Z,12.80
2023-01-31T07:45:54.125Z,8.07
2023-01-31T07:48:24.785Z,14.73
2023-01-31T07:50:56.300Z,13.48
2023-01-31T07:53:26.667Z,12.88
2023-01-31T07:55:57.509Z,13.90
2023-01-31T07:58:30.666Z,12.52
2023-01-31T08:01:13.500Z,7.07
2023-01-31T08:03:43.849Z,11.27
2023-01-31T08:06:16.068Z,23.50
2023-01-31T08:08:48.212Z,8.80
2023-01-31T08:11:18.551Z,10.07
2023-01-31T08:13:51.469Z,10.50
2023-01-31T08:16:21.952Z,11.02
2023-01-31T08:18:53.037Z,9.38
2023-01-31T08:21:23.674Z,9.60
2023-01-31T08:23:54.085Z,11.00
2023-01-31T08:26:25.972Z,9.03
2023-01-31T08:29:00.235Z,12.63
2023-01-31T08:31:31.803Z,12.55
2023-01-31T08:34:03.313Z,8.68
2023-01-31T08:36:35.895Z,9.02
2023-01-31T08:39:07.741Z,9.90
2023-01-31T08:41:39.496Z,12.52
2023-01-31T08:44:12.437Z,9.63
2023-01-31T08:46:42.943Z,7.53
2023-01-31T08:49:13.367Z,12.48
2023-01-31T08:51:45.308Z,11.18
2023-01-31T08:54:16.337Z,10.55
2023-01-31T08:56:46.684Z,6.80
2023-01-31T08:59:19.700Z,10.20
2023-01-31T09:01:50.009Z,8.00
2023-01-31T09:04:20.401Z,9.93
2023-01-31T09:06:50.683Z,10.07
2023-01-31T09:09:21.278Z,11.87
2023-01-31T09:11:51.631Z,10.82
2023-01-31T09:14:24.605Z,11.67
2023-01-31T09:16:54.946Z,9.10
2023-01-31T09:19:25.591Z,10.07
2023-01-31T09:21:56.265Z,10.15
2023-01-31T09:24:26.679Z,8.32
2023-01-31T09:26:57.346Z,8.77
2023-01-31T09:29:31.025Z,10.70
2023-01-31T09:32:01.437Z,10.95
2023-01-31T09:34:32.201Z,11.00
2023-01-31T09:37:02.647Z,9.13
2023-01-31T09:39:33.267Z,9.65
2023-01-31T09:42:19.769Z,5.97
2023-01-31T09:45:02.550Z,9.85
2023-01-31T09:47:37.352Z,13.27
2023-01-31T09:50:18.043Z,11.45
2023-01-31T09:52:49.103Z,8.05
2023-01-31T09:55:22.230Z,10.48
2023-01-31T09:58:02.638Z,12.05
2023-01-31T10:00:40.803Z,10.90
2023-01-31T10:03:31.805Z,11.25
2023-01-31T10:06:10.393Z,9.80
2023-01-31T10:08:51.255Z,11.80
2023-01-31T10:11:34.987Z,8.98
2023-01-31T10:14:24.139Z,8.23
2023-01-31T10:17:08.284Z,11.60
2023-01-31T10:19:48.461Z,17.42
2023-01-31T10:22:25.195Z,9.73
2023-01-31T10:25:03.503Z,8.98
2023-01-31T10:27:45.459Z,13.13
2023-01-31T10:30:22.273Z,12.98
2023-01-31T10:33:03.891Z,7.28
2023-01-31T10:38:17.176Z,14.25
2023-01-31T10:40:53.401Z,8.77
2023-01-31T10:43:32.911Z,9.27
2023-01-31T10:46:03.948Z,9.40
2023-01-31T10:48:37.018Z,11.30
2023-01-31T10:51:24.487Z,12.23
2023-01-31T10:54:14.555Z,7.38
2023-01-31T10:56:49.124Z,11.43
2023-01-31T10:59:27.041Z,9.00
2023-01-31T11:01:58.640Z,9.48
2023-01-31T11:04:35.208Z,10.60
2023-01-31T11:07:07.068Z,9.38
2023-01-31T11:09:41.365Z,8.35
2023-01-31T11:12:12.340Z,10.57
2023-01-31T11:14:42.762Z,6.45
2023-01-31T11:17:20.902Z,10.07
2023-01-31T11:19:56.099Z,8.70
2023-01-31T11:22:29.606Z,11.52
2023-01-31T11:25:04.181Z,11.10
2023-01-31T11:27:41.503Z,14.88
2023-01-31T11:30:26.274Z,12.60
2023-01-31T11:32:56.892Z,8.40
2023-01-31T11:35:33.117Z,11.20
2023-01-31T11:38:06.977Z,11.13
2023-01-31T11:40:39.791Z,10.25
2023-01-31T11:43:28.648Z,10.63
2023-01-31T11:46:02.574Z,15.43
2023-01-31T11:48:43.492Z,14.80
2023-01-31T11:51:31.027Z,10.77
2023-01-31T11:54:01.412Z,12.30
2023-01-31T11:56:38.230Z,12.40
2023-01-31T11:59:10.874Z,16.95
2023-01-31T12:01:49.864Z,10.73
2023-01-31T12:04:25.032Z,12.77
2023-01-31T12:07:05.300Z,11.13
2023-01-31T12:09:46.695Z,12.95
2023-01-31T12:15:07.966Z,14.10
2023-01-31T12:17:47.700Z,18.58
2023-01-31T12:20:39.896Z,15.25
2023-01-31T12:23:26.559Z,13.93
2023-01-31T12:26:10.297Z,16.40
2023-01-31T12:28:59.695Z,18.50
2023-01-31T12:31:58.445Z,14.65
2023-01-31T12:35:00.747Z,15.90
2023-01-31T12:37:45.296Z,22.30
2023-01-31T12:40:42.881Z,14.65
2023-01-31T12:43:33.783Z,15.18
2023-01-31T12:46:15.834Z,15.80
2023-01-31T12:49:11.476Z,16.25
2023-01-31T12:51:51.599Z,14.10
2023-01-31T12:54:41.916Z,18.73
2023-01-31T12:57:31.205Z,16.02
2023-01-31T13:00:28.903Z,16.33
2023-01-31T13:03:35.777Z,21.67
2023-01-31T13:06:15.543Z,13.77
2023-01-31T13:09:06.884Z,19.50
2023-01-31T13:11:44.945Z,21.42
2023-01-31T13:14:24.478Z,20.08
2023-01-31T13:17:00.320Z,21.27
2023-01-31T13:19:37.951Z,19.25
2023-01-31T13:22:14.717Z,14.20
2023-01-31T13:24:50.454Z,14.25
2023-01-31T13:27:29.280Z,21.77
2023-01-31T13:30:09.195Z,17.73
2023-01-31T13:32:44.972Z,14.93
2023-01-31T13:35:24.938Z,24.52
2023-01-31T13:38:01.024Z,26.02
2023-01-31T13:40:35.409Z,17.95
2023-01-31T13:43:15.852Z,15.98
2023-01-31T13:45:53.859Z,16.10
2023-01-31T13:48:30.984Z,14.13
2023-01-31T13:51:06.491Z,15.68
2023-01-31T13:53:45.836Z,22.92
2023-01-31T13:56:25.893Z,13.13
2023-01-31T13:58:59.037Z,18.35
2023-01-31T14:01:37.771Z,11.35
2023-01-31T14:04:29.145Z,14.33
2023-01-31T14:07:25.808Z,17.02
2023-01-31T14:10:40.938Z,14.10
2023-01-31T14:13:40.571Z,17.37
2023-01-31T14:16:46.203Z,15.43
2023-01-31T14:20:05.116Z,9.40
2023-01-31T14:22:38.915Z,9.33
2023-01-31T14:25:17.082Z,10.93
2023-01-31T14:28:04.265Z,11.17
2023-01-31T14:30:43.432Z,9.57
2023-01-31T14:33:27.035Z,12.53
2023-01-31T14:36:36.639Z,13.10
2023-01-31T14:39:44.957Z,14.23
2023-01-31T14:43:03.957Z,18.25
2023-01-31T14:46:09.113Z,9.77
2023-01-31T14:49:10.493Z,10.63
2023-01-31T14:52:01.812Z,10.13
2023-01-31T14:55:01.250Z,12.00
2023-01-31T14:57:36.946Z,8.53
2023-01-31T15:00:10.258Z,12.27
2023-01-31T15:02:51.286Z,11.63
2023-01-31T15:05:42.006Z,11.80
2023-01-31T15:08:44.542Z,9.60
2023-01-31T15:11:43.033Z,11.43
2023-01-31T15:14:34.717Z,10.47
2023-01-31T15:17:32.052Z,13.03
2023-01-31T15:20:21.251Z,9.53
2023-01-31T15:22:59.006Z,14.53
2023-01-31T15:25:36.685Z,9.97
2023-01-31T15:28:08.496Z,13.40
2023-01-31T15:30:40.802Z,10.37
2023-01-31T15:33:19.115Z,11.53
2023-01-31T15:35:55.602Z,15.70
2023-01-31T15:38:35.221Z,12.10
2023-01-31T15:41:13.808Z,17.77
2023-01-31T15:43:44.196Z,11.17
2023-01-31T15:46:24.800Z,14.20
2023-01-31T15:48:55.541Z,14.45
2023-01-31T15:51:26.723Z,9.30
2023-01-31T15:54:10.250Z,10.40
2023-01-31T15:56:43.655Z,10.07
2023-01-31T15:59:16.957Z,12.07
2023-01-31T16:01:51.360Z,11.47
2023-01-31T16:04:22.045Z,10.87
2023-01-31T16:06:54.021Z,9.55
2023-01-31T16:09:34.377Z,15.10
2023-01-31T16:12:05.759Z,15.27
2023-01-31T16:14:38.015Z,11.43
2023-01-31T16:17:08.572Z,9.67
2023-01-31T16:19:38.958Z,8.88
2023-01-31T16:22:27.099Z,10.47
2023-01-31T16:25:02.929Z,12.13
2023-01-31T16:27:39.590Z,6.73
2023-01-31T16:30:18.909Z,8.60
2023-01-31T16:32:51.623Z,6.83
2023-01-31T16:35:27.072Z,5.70
2023-01-31T16:38:07.075Z,8.47
2023-01-31T16:40:49.023Z,11.07
2023-01-31T16:43:27.630Z,6.67
2023-01-31T16:46:01.634Z,6.23
2023-01-31T16:48:34.641Z,7.30
2023-01-31T16:51:43.640Z,5.57
2023-01-31T16:54:24.478Z,6.33
2023-01-31T16:57:24.833Z,8.02
2023-01-31T16:59:56.802Z,6.10
2023-01-31T17:02:32.892Z,8.30
2023-01-31T17:05:12.832Z,4.90
2023-01-31T17:07:48.978Z,6.63
2023-01-31T17:10:26.857Z,7.23
2023-01-31T17:13:05.187Z,7.67
2023-01-31T17:15:35.815Z,5.13
2023-01-31T17:18:06.422Z,5.47
2023-01-31T17:20:36.785Z,5.28
2023-01-31T17:23:07.522Z,4.03
2023-01-31T17:25:39.303Z,6.95
2023-01-31T17:28:13.942Z,6.30
2023-01-31T17:30:46.545Z,5.55
2023-01-31T17:33:18.185Z,6.18
2023-01-31T17:35:50.093Z,6.97
2023-01-31T17:38:21.034Z,5.68
2023-01-31T17:40:53.141Z,6.32
2023-01-31T17:43:26.314Z,6.82
2023-01-31T17:45:56.743Z,5.85
2023-01-31T17:48:27.243Z,5.73
2023-01-31T17:50:57.822Z,5.25
2023-01-31T17:53:32.145Z,4.70
2023-01-31T17:56:05.568Z,4.50
2023-01-31T17:58:38.675Z,5.03
2023-01-31T18:01:14.057Z,4.50
2023-01-31T18:03:45.169Z,5.90
2023-01-31T18:06:15.775Z,7.13
2023-01-31T18:08:46.209Z,7.35
2023-01-31T18:11:19.302Z,4.53
2023-01-31T18:13:52.309Z,6.67
2023-01-31T18:16:26.029Z,5.72
2023-01-31T18:18:58.219Z,5.47
2023-01-31T18:21:28.780Z,6.47
2023-01-31T18:24:01.750Z,5.22
2023-01-31T18:26:32.536Z,4.55
2023-01-31T18:29:05.825Z,5.75
2023-01-31T18:31:36.461Z,6.78
2023-01-31T18:34:07.101Z,4.57
2023-01-31T18:36:37.483Z,6.07
2023-01-31T18:39:07.887Z,4.87
2023-01-31T18:41:38.291Z,5.17
2023-01-31T18:44:11.648Z,4.27
2023-01-31T18:46:42.114Z,4.03
2023-01-31T18:49:12.625Z,4.73
2023-01-31T18:51:43.042Z,6.85
2023-01-31T18:54:13.499Z,4.82
2023-01-31T18:56:44.828Z,6.07
2023-01-31T18:59:17.765Z,4.32
2023-01-31T19:01:48.196Z,4.53
2023-01-31T19:04:18.491Z,4.07
2023-01-31T19:06:51.455Z,4.60
2023-01-31T19:09:22.599Z,4.95
2023-01-31T19:11:53.043Z,5.65
2023-01-31T19:14:26.021Z,3.93
2023-01-31T19:16:58.280Z,5.35
2023-01-31T19:19:29.167Z,4.05
2023-01-31T19:21:59.533Z,4.93
2023-01-31T19:24:30.174Z,3.57
2023-01-31T19:27:00.564Z,6.05
2023-01-31T19:29:33.509Z,6.27
2023-01-31T19:32:03.950Z,4.07
2023-01-31T19:34:36.443Z,4.70
2023-01-31T19:37:06.964Z,7.30
2023-01-31T19:39:37.627Z,3.85
2023-01-31T19:42:08.742Z,4.88
2023-01-31T19:44:41.739Z,3.33
2023-01-31T19:47:12.096Z,3.22
2023-01-31T19:49:42.400Z,2.97
2023-01-31T19:52:12.846Z,3.77
2023-01-31T19:54:43.251Z,3.70
2023-01-31T19:57:13.699Z,5.23
2023-01-31T19:59:47.029Z,3.53
2023-01-31T20:02:17.512Z,3.20
2023-01-31T20:04:48.111Z,4.40
2023-01-31T20:07:18.500Z,3.88
2023-01-31T20:09:48.767Z,3.97
2023-01-31T20:12:19.140Z,3.90
2023-01-31T20:14:52.096Z,4.03
2023-01-31T20:17:25.204Z,3.97
2023-01-31T20:19:55.598Z,3.85
2023-01-31T20:22:25.935Z,4.00
2023-01-31T20:24:57.225Z,3.23
2023-01-31T20:30:00.978Z,3.43
2023-01-31T20:32:31.291Z,3.72
2023-01-31T20:35:02.057Z,3.53
2023-01-31T20:37:33.603Z,4.15
2023-01-31T20:40:04.029Z,3.28
2023-01-31T20:42:35.830Z,3.47
2023-01-31T20:45:10.893Z,3.97
2023-01-31T20:47:41.262Z,4.88
2023-01-31T20:50:13.722Z,5.47
2023-01-31T20:52:44.049Z,4.07
2023-01-31T20:55:16.372Z,4.00
2023-01-31T20:57:50.040Z,3.40
2023-01-31T21:00:25.259Z,5.05
2023-01-31T21:02:55.573Z,3.97
2023-01-31T21:05:25.980Z,3.80
2023-01-31T21:07:56.425Z,3.92
2023-01-31T21:10:28.878Z,3.60
2023-01-31T21:12:59.220Z,4.18
2023-01-31T21:15:32.274Z,4.50
2023-01-31T21:18:02.651Z,3.60
2023-01-31T21:20:33.026Z,4.30
2023-01-31T21:23:03.331Z,3.73
2023-01-31T21:25:34.015Z,4.63
2023-01-31T21:28:04.697Z,3.85
2023-01-31T21:30:39.286Z,4.05
2023-01-31T21:33:09.610Z,4.03
2023-01-31T21:35:40.057Z,4.60
2023-01-31T21:38:10.430Z,5.10
2023-01-31T21:40:40.885Z,3.53
2023-01-31T21:43:08.594Z,4.20
2023-01-31T21:45:44.471Z,4.07
2023-01-31T21:48:27.615Z,3.83
2023-01-31T21:50:58.990Z,3.42
2023-01-31T21:53:29.416Z,6.15
2023-01-31T21:56:04.397Z,4.97
2023-01-31T21:58:35.186Z,6.15
2023-01-31T22:01:10.514Z,7.78
2023-01-31T22:03:42.715Z,4.05
2023-01-31T22:06:16.712Z,4.97
2023-01-31T22:08:47.330Z,6.20
2023-01-31T22:11:18.399Z,6.10
2023-01-31T22:13:53.156Z,4.43
2023-01-31T22:16:27.912Z,4.75
2023-01-31T22:18:58.450Z,7.38
2023-01-31T22:21:31.394Z,7.20
2023-01-31T22:24:04.201Z,7.32
2023-01-31T22:26:37.612Z,6.88
2023-01-31T22:29:10.759Z,5.95
2023-01-31T22:31:43.910Z,5.57
2023-01-31T22:34:17.795Z,7.00
2023-01-31T22:36:48.155Z,8.60
2023-01-31T22:39:18.720Z,6.97
2023-01-31T22:41:49.049Z,7.43
2023-01-31T22:44:19.341Z,8.97
2023-01-31T22:46:52.321Z,7.77
2023-01-31T22:49:22.980Z,6.05
2023-01-31T22:51:53.401Z,7.65
2023-01-31T22:54:23.898Z,7.03
2023-01-31T22:56:54.262Z,8.90
2023-01-31T22:59:24.854Z,7.20
2023-01-31T23:01:57.799Z,10.20
2023-01-31T23:04:28.200Z,6.07
2023-01-31T23:06:58.509Z,7.27
2023-01-31T23:09:28.808Z,9.17
2023-01-31T23:11:59.085Z,7.93
2023-01-31T23:14:29.441Z,7.37
2023-01-31T23:17:14.711Z,5.57
2023-01-31T23:19:45.055Z,6.50
2023-01-31T23:22:17.840Z,7.03
2023-01-31T23:24:48.069Z,7.43
2023-01-31T23:27:18.447Z,6.93
2023-01-31T23:29:48.772Z,7.37
2023-01-31T23:32:21.818Z,6.17
2023-01-31T23:34:52.911Z,7.30
2023-01-31T23:37:23.571Z,9.88
2023-01-31T23:39:54.209Z,10.43
2023-01-31T23:42:24.655Z,7.68
2023-01-31T23:44:55.053Z,9.37
2023-01-31T23:47:28.027Z,6.13
2023-01-31T23:49:58.340Z,7.15
2023-01-31T23:52:28.842Z,8.27
2023-01-31T23:54:59.267Z,9.07
2023-01-31T23:57:29.700Z,7.50
